sensor_id;sensor_type;location;lat;lon;timestamp;P1;durP1;ratioP1;P2;durP2;ratioP2
52468;SDS011;38381;53.688;10.776;2023-04-29T00:02:30;7.60;;;5.93;;
52468;SDS011;38381;53.688;10.776;2023-04-29T00:07:31;8.35;;;6.43;;
52468;SDS011;38381;53.688;10.776;2023-04-29T00:12:32;8.32;;;7.20;;
52468;SDS011;38381;53.688;10.776;2023-04-29T00:17:32;7.88;;;6.40;;
52468;SDS011;38381;53.688;10.776;2023-04-29T00:22:33;8.07;;;7.28;;
52468;SDS011;38381;53.688;10.776;2023-04-29T00:27:33;8.90;;;8.00;;
52468;SDS011;38381;53.688;10.776;2023-04-29T00:32:34;8.45;;;7.65;;
52468;SDS011;38381;53.688;10.776;2023-04-29T00:37:35;9.85;;;7.75;;
52468;SDS011;38381;53.688;10.776;2023-04-29T00:42:36;9.00;;;8.07;;
52468;SDS011;38381;53.688;10.776;2023-04-29T00:47:37;8.07;;;7.20;;
52468;SDS011;38381;53.688;10.776;2023-04-29T00:52:38;9.35;;;7.68;;
52468;SDS011;38381;53.688;10.776;2023-04-29T00:57:39;10.35;;;8.65;;
52468;SDS011;38381;53.688;10.776;2023-04-29T01:02:40;9.90;;;7.70;;
52468;SDS011;38381;53.688;10.776;2023-04-29T01:07:53;8.98;;;8.07;;
52468;SDS011;38381;53.688;10.776;2023-04-29T01:13:06;10.48;;;8.63;;
52468;SDS011;38381;53.688;10.776;2023-04-29T01:18:13;11.55;;;9.85;;
52468;SDS011;38381;53.688;10.776;2023-04-29T01:23:19;9.55;;;8.57;;
52468;SDS011;38381;53.688;10.776;2023-04-29T01:28:22;11.02;;;9.95;;
52468;SDS011;38381;53.688;10.776;2023-04-29T01:44:23;9.60;;;8.68;;
52468;SDS011;38381;53.688;10.776;2023-04-29T01:49:26;10.93;;;8.63;;
52468;SDS011;38381;53.688;10.776;2023-04-29T01:54:27;10.85;;;8.93;;
52468;SDS011;38381;53.688;10.776;2023-04-29T01:59:28;10.73;;;9.32;;
52468;SDS011;38381;53.688;10.776;2023-04-29T02:04:29;8.63;;;7.82;;
52468;SDS011;38381;53.688;10.776;2023-04-29T02:09:32;9.60;;;8.32;;
52468;SDS011;38381;53.688;10.776;2023-04-29T02:14:33;9.35;;;8.35;;
52468;SDS011;38381;53.688;10.776;2023-04-29T02:19:33;9.45;;;8.25;;
52468;SDS011;38381;53.688;10.776;2023-04-29T02:24:34;10.07;;;7.93;;
52468;SDS011;38381;53.688;10.776;2023-04-29T02:29:34;8.85;;;7.82;;
52468;SDS011;38381;53.688;10.776;2023-04-29T02:34:34;10.15;;;7.57;;
52468;SDS011;38381;53.688;10.776;2023-04-29T02:39:35;8.77;;;7.55;;
52468;SDS011;38381;53.688;10.776;2023-04-29T02:44:35;8.70;;;7.65;;
52468;SDS011;38381;53.688;10.776;2023-04-29T02:49:36;10.87;;;8.67;;
52468;SDS011;38381;53.688;10.776;2023-04-29T02:54:36;8.83;;;7.93;;
52468;SDS011;38381;53.688;10.776;2023-04-29T02:59:37;9.07;;;8.05;;
52468;SDS011;38381;53.688;10.776;2023-04-29T03:04:37;9.15;;;7.60;;
52468;SDS011;38381;53.688;10.776;2023-04-29T03:09:39;8.93;;;8.10;;
52468;SDS011;38381;53.688;10.776;2023-04-29T03:14:42;8.23;;;7.22;;
52468;SDS011;38381;53.688;10.776;2023-04-29T03:19:43;9.20;;;8.05;;
52468;SDS011;38381;53.688;10.776;2023-04-29T03:24:43;9.68;;;7.70;;
52468;SDS011;38381;53.688;10.776;2023-04-29T03:29:44;9.00;;;7.88;;
52468;SDS011;38381;53.688;10.776;2023-04-29T03:34:44;11.10;;;8.52;;
52468;SDS011;38381;53.688;10.776;2023-04-29T03:39:45;11.55;;;9.50;;
52468;SDS011;38381;53.688;10.776;2023-04-29T03:44:45;13.60;;;9.73;;
52468;SDS011;38381;53.688;10.776;2023-04-29T03:49:45;17.55;;;11.40;;
52468;SDS011;38381;53.688;10.776;2023-04-29T03:54:46;10.48;;;9.38;;
52468;SDS011;38381;53.688;10.776;2023-04-29T03:59:46;13.90;;;10.33;;
52468;SDS011;38381;53.688;10.776;2023-04-29T04:04:49;11.55;;;10.43;;
52468;SDS011;38381;53.688;10.776;2023-04-29T04:09:49;13.38;;;11.05;;
52468;SDS011;38381;53.688;10.776;2023-04-29T04:14:50;13.57;;;10.65;;
52468;SDS011;38381;53.688;10.776;2023-04-29T04:19:50;10.97;;;9.87;;
52468;SDS011;38381;53.688;10.776;2023-04-29T04:24:53;10.60;;;9.05;;
52468;SDS011;38381;53.688;10.776;2023-04-29T04:29:54;10.38;;;9.00;;
52468;SDS011;38381;53.688;10.776;2023-04-29T04:34:54;11.73;;;8.48;;
52468;SDS011;38381;53.688;10.776;2023-04-29T04:39:55;15.23;;;9.20;;
52468;SDS011;38381;53.688;10.776;2023-04-29T04:44:55;11.70;;;8.80;;
52468;SDS011;38381;53.688;10.776;2023-04-29T04:49:56;9.32;;;8.07;;
52468;SDS011;38381;53.688;10.776;2023-04-29T04:54:56;12.47;;;8.10;;
52468;SDS011;38381;53.688;10.776;2023-04-29T04:59:57;10.00;;;8.87;;
52468;SDS011;38381;53.688;10.776;2023-04-29T05:04:57;11.80;;;7.60;;
52468;SDS011;38381;53.688;10.776;2023-04-29T05:09:57;9.67;;;7.87;;
52468;SDS011;38381;53.688;10.776;2023-04-29T05:14:58;8.45;;;7.60;;
52468;SDS011;38381;53.688;10.776;2023-04-29T05:19:58;10.82;;;8.45;;
52468;SDS011;38381;53.688;10.776;2023-04-29T05:24:59;8.63;;;7.50;;
52468;SDS011;38381;53.688;10.776;2023-04-29T05:30:02;9.52;;;7.78;;
52468;SDS011;38381;53.688;10.776;2023-04-29T05:35:03;9.43;;;8.43;;
52468;SDS011;38381;53.688;10.776;2023-04-29T05:40:04;8.10;;;6.50;;
52468;SDS011;38381;53.688;10.776;2023-04-29T05:45:05;10.20;;;8.80;;
52468;SDS011;38381;53.688;10.776;2023-04-29T05:50:06;10.05;;;7.10;;
52468;SDS011;38381;53.688;10.776;2023-04-29T05:55:07;9.50;;;7.65;;
52468;SDS011;38381;53.688;10.776;2023-04-29T06:00:07;11.55;;;8.63;;
52468;SDS011;38381;53.688;10.776;2023-04-29T06:05:08;8.68;;;7.47;;
52468;SDS011;38381;53.688;10.776;2023-04-29T06:10:09;9.18;;;7.68;;
52468;SDS011;38381;53.688;10.776;2023-04-29T06:15:10;8.18;;;7.20;;
52468;SDS011;38381;53.688;10.776;2023-04-29T06:20:10;11.73;;;7.38;;
52468;SDS011;38381;53.688;10.776;2023-04-29T06:25:11;9.70;;;6.75;;
52468;SDS011;38381;53.688;10.776;2023-04-29T06:30:13;11.75;;;8.32;;
52468;SDS011;38381;53.688;10.776;2023-04-29T06:35:13;11.10;;;7.13;;
52468;SDS011;38381;53.688;10.776;2023-04-29T06:40:14;11.90;;;7.40;;
52468;SDS011;38381;53.688;10.776;2023-04-29T06:45:14;8.43;;;6.45;;
52468;SDS011;38381;53.688;10.776;2023-04-29T06:50:15;9.10;;;7.43;;
52468;SDS011;38381;53.688;10.776;2023-04-29T06:55:15;11.38;;;7.85;;
52468;SDS011;38381;53.688;10.776;2023-04-29T07:00:16;12.40;;;7.47;;
52468;SDS011;38381;53.688;10.776;2023-04-29T07:05:18;11.23;;;7.15;;
52468;SDS011;38381;53.688;10.776;2023-04-29T07:10:19;8.48;;;7.28;;
52468;SDS011;38381;53.688;10.776;2023-04-29T07:15:19;8.05;;;6.82;;
52468;SDS011;38381;53.688;10.776;2023-04-29T07:20:20;9.35;;;6.28;;
52468;SDS011;38381;53.688;10.776;2023-04-29T07:25:20;6.78;;;5.60;;
52468;SDS011;38381;53.688;10.776;2023-04-29T07:30:21;7.80;;;5.90;;
52468;SDS011;38381;53.688;10.776;2023-04-29T07:35:22;9.68;;;5.82;;
52468;SDS011;38381;53.688;10.776;2023-04-29T07:40:23;9.45;;;5.40;;
52468;SDS011;38381;53.688;10.776;2023-04-29T07:45:24;10.40;;;5.65;;
52468;SDS011;38381;53.688;10.776;2023-04-29T07:50:25;6.22;;;5.50;;
52468;SDS011;38381;53.688;10.776;2023-04-29T07:55:25;8.13;;;5.13;;
52468;SDS011;38381;53.688;10.776;2023-04-29T08:00:26;5.72;;;4.72;;
52468;SDS011;38381;53.688;10.776;2023-04-29T08:05:27;7.68;;;5.43;;
52468;SDS011;38381;53.688;10.776;2023-04-29T08:10:29;7.43;;;4.38;;
52468;SDS011;38381;53.688;10.776;2023-04-29T08:15:30;7.50;;;4.47;;
52468;SDS011;38381;53.688;10.776;2023-04-29T08:20:30;5.50;;;5.00;;
52468;SDS011;38381;53.688;10.776;2023-04-29T08:25:30;5.95;;;4.38;;
52468;SDS011;38381;53.688;10.776;2023-04-29T08:30:31;8.50;;;5.30;;
52468;SDS011;38381;53.688;10.776;2023-04-29T08:35:32;6.78;;;4.28;;
52468;SDS011;38381;53.688;10.776;2023-04-29T08:40:43;9.30;;;4.95;;
52468;SDS011;38381;53.688;10.776;2023-04-29T08:45:46;6.43;;;4.47;;
52468;SDS011;38381;53.688;10.776;2023-04-29T08:50:48;8.23;;;5.07;;
52468;SDS011;38381;53.688;10.776;2023-04-29T08:55:49;5.53;;;4.38;;
52468;SDS011;38381;53.688;10.776;2023-04-29T09:00:49;7.38;;;5.22;;
52468;SDS011;38381;53.688;10.776;2023-04-29T09:05:54;6.90;;;4.53;;
52468;SDS011;38381;53.688;10.776;2023-04-29T09:10:55;6.70;;;5.00;;
52468;SDS011;38381;53.688;10.776;2023-04-29T09:15:57;5.80;;;4.55;;
52468;SDS011;38381;53.688;10.776;2023-04-29T09:20:58;7.47;;;4.18;;
52468;SDS011;38381;53.688;10.776;2023-04-29T09:25:58;4.30;;;3.40;;
52468;SDS011;38381;53.688;10.776;2023-04-29T09:30:59;4.27;;;3.83;;
52468;SDS011;38381;53.688;10.776;2023-04-29T09:36:02;7.90;;;4.80;;
52468;SDS011;38381;53.688;10.776;2023-04-29T09:41:08;9.13;;;5.22;;
52468;SDS011;38381;53.688;10.776;2023-04-29T09:46:11;8.32;;;4.85;;
52468;SDS011;38381;53.688;10.776;2023-04-29T09:51:12;7.20;;;4.70;;
52468;SDS011;38381;53.688;10.776;2023-04-29T09:56:12;7.30;;;4.67;;
52468;SDS011;38381;53.688;10.776;2023-04-29T10:01:12;6.57;;;4.53;;
52468;SDS011;38381;53.688;10.776;2023-04-29T10:06:17;6.57;;;4.05;;
52468;SDS011;38381;53.688;10.776;2023-04-29T10:11:18;4.32;;;3.92;;
52468;SDS011;38381;53.688;10.776;2023-04-29T10:16:29;4.68;;;4.28;;
52468;SDS011;38381;53.688;10.776;2023-04-29T10:21:33;7.95;;;4.65;;
52468;SDS011;38381;53.688;10.776;2023-04-29T10:26:35;8.17;;;5.47;;
52468;SDS011;38381;53.688;10.776;2023-04-29T10:31:38;6.60;;;5.10;;
52468;SDS011;38381;53.688;10.776;2023-04-29T10:41:42;5.88;;;4.30;;
52468;SDS011;38381;53.688;10.776;2023-04-29T10:46:46;5.40;;;4.90;;
52468;SDS011;38381;53.688;10.776;2023-04-29T10:51:47;5.32;;;4.38;;
52468;SDS011;38381;53.688;10.776;2023-04-29T10:56:48;6.10;;;3.92;;
52468;SDS011;38381;53.688;10.776;2023-04-29T11:01:50;5.32;;;3.95;;
52468;SDS011;38381;53.688;10.776;2023-04-29T11:06:52;5.28;;;4.60;;
52468;SDS011;38381;53.688;10.776;2023-04-29T11:17:04;5.40;;;4.15;;
52468;SDS011;38381;53.688;10.776;2023-04-29T11:22:08;4.18;;;3.40;;
52468;SDS011;38381;53.688;10.776;2023-04-29T11:27:09;6.57;;;3.97;;
52468;SDS011;38381;53.688;10.776;2023-04-29T11:32:09;6.05;;;3.75;;
52468;SDS011;38381;53.688;10.776;2023-04-29T11:37:10;5.00;;;4.00;;
52468;SDS011;38381;53.688;10.776;2023-04-29T11:42:10;5.85;;;4.50;;
52468;SDS011;38381;53.688;10.776;2023-04-29T11:47:11;6.72;;;4.93;;
52468;SDS011;38381;53.688;10.776;2023-04-29T11:52:11;8.18;;;5.65;;
52468;SDS011;38381;53.688;10.776;2023-04-29T11:57:12;5.50;;;4.35;;
52468;SDS011;38381;53.688;10.776;2023-04-29T12:02:13;4.93;;;3.55;;
52468;SDS011;38381;53.688;10.776;2023-04-29T12:07:14;5.35;;;3.97;;
52468;SDS011;38381;53.688;10.776;2023-04-29T12:12:15;6.72;;;4.68;;
52468;SDS011;38381;53.688;10.776;2023-04-29T12:17:16;5.25;;;3.50;;
52468;SDS011;38381;53.688;10.776;2023-04-29T12:22:18;4.32;;;3.78;;
52468;SDS011;38381;53.688;10.776;2023-04-29T12:27:19;7.45;;;4.00;;
52468;SDS011;38381;53.688;10.776;2023-04-29T12:32:21;6.38;;;4.30;;
52468;SDS011;38381;53.688;10.776;2023-04-29T12:37:22;8.10;;;4.22;;
52468;SDS011;38381;53.688;10.776;2023-04-29T12:42:23;8.13;;;4.28;;
52468;SDS011;38381;53.688;10.776;2023-04-29T12:47:32;4.30;;;3.50;;
52468;SDS011;38381;53.688;10.776;2023-04-29T12:52:36;5.07;;;3.20;;
52468;SDS011;38381;53.688;10.776;2023-04-29T12:57:36;4.68;;;3.08;;
52468;SDS011;38381;53.688;10.776;2023-04-29T13:02:38;5.68;;;3.92;;
52468;SDS011;38381;53.688;10.776;2023-04-29T13:07:45;6.95;;;3.97;;
52468;SDS011;38381;53.688;10.776;2023-04-29T13:12:46;6.00;;;3.92;;
52468;SDS011;38381;53.688;10.776;2023-04-29T13:17:46;19.05;;;5.90;;
52468;SDS011;38381;53.688;10.776;2023-04-29T13:22:47;6.38;;;4.15;;
52468;SDS011;38381;53.688;10.776;2023-04-29T13:27:47;10.37;;;4.73;;
52468;SDS011;38381;53.688;10.776;2023-04-29T13:32:49;6.30;;;4.13;;
52468;SDS011;38381;53.688;10.776;2023-04-29T13:37:49;4.35;;;3.67;;
52468;SDS011;38381;53.688;10.776;2023-04-29T13:42:49;5.38;;;3.63;;
52468;SDS011;38381;53.688;10.776;2023-04-29T13:47:50;5.78;;;3.45;;
52468;SDS011;38381;53.688;10.776;2023-04-29T13:52:50;4.68;;;3.70;;
52468;SDS011;38381;53.688;10.776;2023-04-29T13:57:51;6.38;;;3.75;;
52468;SDS011;38381;53.688;10.776;2023-04-29T14:02:52;6.68;;;4.00;;
52468;SDS011;38381;53.688;10.776;2023-04-29T14:07:52;5.23;;;4.40;;
52468;SDS011;38381;53.688;10.776;2023-04-29T14:12:53;5.90;;;3.47;;
52468;SDS011;38381;53.688;10.776;2023-04-29T14:17:53;15.53;;;4.80;;
52468;SDS011;38381;53.688;10.776;2023-04-29T14:22:54;2.78;;;2.45;;
52468;SDS011;38381;53.688;10.776;2023-04-29T14:27:54;4.95;;;2.30;;
52468;SDS011;38381;53.688;10.776;2023-04-29T14:32:55;4.82;;;3.17;;
52468;SDS011;38381;53.688;10.776;2023-04-29T14:37:55;14.63;;;7.00;;
52468;SDS011;38381;53.688;10.776;2023-04-29T14:42:56;4.88;;;2.78;;
52468;SDS011;38381;53.688;10.776;2023-04-29T14:47:56;2.75;;;1.77;;
52468;SDS011;38381;53.688;10.776;2023-04-29T14:52:56;3.35;;;2.40;;
52468;SDS011;38381;53.688;10.776;2023-04-29T14:57:57;2.72;;;2.00;;
52468;SDS011;38381;53.688;10.776;2023-04-29T15:02:58;3.50;;;1.85;;
52468;SDS011;38381;53.688;10.776;2023-04-29T15:07:58;2.78;;;2.10;;
52468;SDS011;38381;53.688;10.776;2023-04-29T15:13:00;2.15;;;1.90;;
52468;SDS011;38381;53.688;10.776;2023-04-29T15:18:01;3.85;;;2.45;;
52468;SDS011;38381;53.688;10.776;2023-04-29T15:23:02;8.05;;;1.67;;
52468;SDS011;38381;53.688;10.776;2023-04-29T15:28:03;1.65;;;1.27;;
52468;SDS011;38381;53.688;10.776;2023-04-29T15:33:03;2.10;;;1.40;;
52468;SDS011;38381;53.688;10.776;2023-04-29T15:38:04;1.50;;;1.20;;
52468;SDS011;38381;53.688;10.776;2023-04-29T15:43:04;2.30;;;1.33;;
52468;SDS011;38381;53.688;10.776;2023-04-29T15:48:05;2.15;;;1.48;;
52468;SDS011;38381;53.688;10.776;2023-04-29T15:53:05;3.25;;;1.92;;
52468;SDS011;38381;53.688;10.776;2023-04-29T15:58:06;2.40;;;1.57;;
52468;SDS011;38381;53.688;10.776;2023-04-29T16:03:06;1.20;;;1.10;;
52468;SDS011;38381;53.688;10.776;2023-04-29T16:08:06;1.97;;;1.37;;
52468;SDS011;38381;53.688;10.776;2023-04-29T16:13:07;3.42;;;1.83;;
52468;SDS011;38381;53.688;10.776;2023-04-29T16:18:07;2.22;;;1.25;;
52468;SDS011;38381;53.688;10.776;2023-04-29T16:23:08;1.77;;;1.25;;
52468;SDS011;38381;53.688;10.776;2023-04-29T16:28:08;1.90;;;1.45;;
52468;SDS011;38381;53.688;10.776;2023-04-29T16:33:09;2.90;;;1.40;;
52468;SDS011;38381;53.688;10.776;2023-04-29T16:38:10;1.77;;;1.60;;
52468;SDS011;38381;53.688;10.776;2023-04-29T16:43:11;2.87;;;1.97;;
52468;SDS011;38381;53.688;10.776;2023-04-29T16:48:14;2.60;;;1.95;;
52468;SDS011;38381;53.688;10.776;2023-04-29T16:53:15;3.05;;;2.17;;
52468;SDS011;38381;53.688;10.776;2023-04-29T16:58:15;2.20;;;1.77;;
52468;SDS011;38381;53.688;10.776;2023-04-29T17:03:16;3.13;;;1.88;;
52468;SDS011;38381;53.688;10.776;2023-04-29T17:08:17;3.45;;;1.67;;
52468;SDS011;38381;53.688;10.776;2023-04-29T17:13:17;4.00;;;2.25;;
52468;SDS011;38381;53.688;10.776;2023-04-29T17:18:17;4.28;;;2.35;;
52468;SDS011;38381;53.688;10.776;2023-04-29T17:23:19;3.50;;;2.40;;
52468;SDS011;38381;53.688;10.776;2023-04-29T17:28:19;3.25;;;2.10;;
52468;SDS011;38381;53.688;10.776;2023-04-29T17:33:20;2.60;;;1.95;;
52468;SDS011;38381;53.688;10.776;2023-04-29T17:38:21;6.45;;;2.38;;
52468;SDS011;38381;53.688;10.776;2023-04-29T17:43:21;3.50;;;2.00;;
52468;SDS011;38381;53.688;10.776;2023-04-29T17:48:22;5.50;;;2.17;;
52468;SDS011;38381;53.688;10.776;2023-04-29T17:53:22;6.88;;;2.17;;
52468;SDS011;38381;53.688;10.776;2023-04-29T17:58:23;4.88;;;1.75;;
52468;SDS011;38381;53.688;10.776;2023-04-29T18:03:23;2.33;;;1.90;;
52468;SDS011;38381;53.688;10.776;2023-04-29T18:08:26;2.30;;;1.63;;
52468;SDS011;38381;53.688;10.776;2023-04-29T18:13:26;2.58;;;1.85;;
52468;SDS011;38381;53.688;10.776;2023-04-29T18:18:27;3.10;;;1.70;;
52468;SDS011;38381;53.688;10.776;2023-04-29T18:23:27;3.65;;;1.90;;
52468;SDS011;38381;53.688;10.776;2023-04-29T18:28:28;2.65;;;2.15;;
52468;SDS011;38381;53.688;10.776;2023-04-29T18:33:28;3.97;;;2.13;;
52468;SDS011;38381;53.688;10.776;2023-04-29T18:38:30;5.00;;;2.95;;
52468;SDS011;38381;53.688;10.776;2023-04-29T18:43:34;2.47;;;1.85;;
52468;SDS011;38381;53.688;10.776;2023-04-29T18:48:34;5.93;;;2.15;;
52468;SDS011;38381;53.688;10.776;2023-04-29T18:53:35;6.28;;;2.20;;
52468;SDS011;38381;53.688;10.776;2023-04-29T18:58:36;3.60;;;1.80;;
52468;SDS011;38381;53.688;10.776;2023-04-29T19:03:36;4.28;;;2.42;;
52468;SDS011;38381;53.688;10.776;2023-04-29T19:08:37;6.35;;;2.67;;
52468;SDS011;38381;53.688;10.776;2023-04-29T19:13:37;8.80;;;3.10;;
52468;SDS011;38381;53.688;10.776;2023-04-29T19:18:38;6.15;;;2.70;;
52468;SDS011;38381;53.688;10.776;2023-04-29T19:23:38;2.92;;;2.53;;
52468;SDS011;38381;53.688;10.776;2023-04-29T19:28:42;3.80;;;2.30;;
52468;SDS011;38381;53.688;10.776;2023-04-29T19:33:42;4.70;;;2.80;;
52468;SDS011;38381;53.688;10.776;2023-04-29T19:38:43;5.22;;;2.42;;
52468;SDS011;38381;53.688;10.776;2023-04-29T19:43:43;4.47;;;2.55;;
52468;SDS011;38381;53.688;10.776;2023-04-29T19:48:44;4.75;;;2.42;;
52468;SDS011;38381;53.688;10.776;2023-04-29T19:53:44;5.10;;;2.50;;
52468;SDS011;38381;53.688;10.776;2023-04-29T19:58:44;4.25;;;2.60;;
52468;SDS011;38381;53.688;10.776;2023-04-29T20:03:45;3.45;;;2.30;;
52468;SDS011;38381;53.688;10.776;2023-04-29T20:08:46;8.77;;;2.97;;
52468;SDS011;38381;53.688;10.776;2023-04-29T20:13:46;3.45;;;2.30;;
52468;SDS011;38381;53.688;10.776;2023-04-29T20:18:47;3.00;;;2.70;;
52468;SDS011;38381;53.688;10.776;2023-04-29T20:23:48;5.35;;;2.63;;
52468;SDS011;38381;53.688;10.776;2023-04-29T20:28:48;4.00;;;2.35;;
52468;SDS011;38381;53.688;10.776;2023-04-29T20:33:49;2.85;;;2.53;;
52468;SDS011;38381;53.688;10.776;2023-04-29T20:38:49;2.70;;;2.33;;
52468;SDS011;38381;53.688;10.776;2023-04-29T20:43:50;4.47;;;2.22;;
52468;SDS011;38381;53.688;10.776;2023-04-29T20:48:51;3.65;;;2.60;;
52468;SDS011;38381;53.688;10.776;2023-04-29T20:53:51;7.43;;;2.78;;
52468;SDS011;38381;53.688;10.776;2023-04-29T20:58:52;6.60;;;3.10;;
52468;SDS011;38381;53.688;10.776;2023-04-29T21:03:52;5.35;;;2.40;;
52468;SDS011;38381;53.688;10.776;2023-04-29T21:08:52;4.80;;;3.47;;
52468;SDS011;38381;53.688;10.776;2023-04-29T21:13:53;8.10;;;3.13;;
52468;SDS011;38381;53.688;10.776;2023-04-29T21:18:53;5.47;;;3.28;;
52468;SDS011;38381;53.688;10.776;2023-04-29T21:23:54;4.97;;;3.38;;
52468;SDS011;38381;53.688;10.776;2023-04-29T21:28:54;3.08;;;2.80;;
52468;SDS011;38381;53.688;10.776;2023-04-29T21:33:55;12.68;;;3.92;;
52468;SDS011;38381;53.688;10.776;2023-04-29T21:38:55;8.07;;;4.07;;
52468;SDS011;38381;53.688;10.776;2023-04-29T21:43:56;3.65;;;2.75;;
52468;SDS011;38381;53.688;10.776;2023-04-29T21:48:58;4.78;;;2.65;;
52468;SDS011;38381;53.688;10.776;2023-04-29T21:54:00;4.85;;;3.33;;
52468;SDS011;38381;53.688;10.776;2023-04-29T21:59:04;5.25;;;3.22;;
52468;SDS011;38381;53.688;10.776;2023-04-29T22:04:05;9.25;;;3.28;;
52468;SDS011;38381;53.688;10.776;2023-04-29T22:09:06;6.05;;;2.85;;
52468;SDS011;38381;53.688;10.776;2023-04-29T22:14:07;5.80;;;3.20;;
52468;SDS011;38381;53.688;10.776;2023-04-29T22:19:08;7.20;;;3.15;;
52468;SDS011;38381;53.688;10.776;2023-04-29T22:24:08;6.05;;;3.10;;
52468;SDS011;38381;53.688;10.776;2023-04-29T22:29:09;3.55;;;2.60;;
52468;SDS011;38381;53.688;10.776;2023-04-29T22:34:10;4.90;;;3.13;;
52468;SDS011;38381;53.688;10.776;2023-04-29T22:39:10;6.80;;;3.53;;
52468;SDS011;38381;53.688;10.776;2023-04-29T22:44:10;5.53;;;4.30;;
52468;SDS011;38381;53.688;10.776;2023-04-29T22:49:11;6.80;;;3.78;;
52468;SDS011;38381;53.688;10.776;2023-04-29T22:54:12;7.07;;;3.55;;
52468;SDS011;38381;53.688;10.776;2023-04-29T22:59:12;6.75;;;3.70;;
52468;SDS011;38381;53.688;10.776;2023-04-29T23:04:13;6.95;;;3.85;;
52468;SDS011;38381;53.688;10.776;2023-04-29T23:09:13;6.22;;;3.88;;
52468;SDS011;38381;53.688;10.776;2023-04-29T23:14:14;4.40;;;3.70;;
52468;SDS011;38381;53.688;10.776;2023-04-29T23:19:14;10.50;;;4.18;;
52468;SDS011;38381;53.688;10.776;2023-04-29T23:24:15;6.97;;;3.72;;
52468;SDS011;38381;53.688;10.776;2023-04-29T23:29:15;6.30;;;3.72;;
52468;SDS011;38381;53.688;10.776;2023-04-29T23:34:16;6.65;;;3.42;;
52468;SDS011;38381;53.688;10.776;2023-04-29T23:39:17;7.50;;;4.45;;
52468;SDS011;38381;53.688;10.776;2023-04-29T23:44:17;5.32;;;3.30;;
52468;SDS011;38381;53.688;10.776;2023-04-29T23:49:17;7.28;;;3.75;;
52468;SDS011;38381;53.688;10.776;2023-04-29T23:54:18;4.38;;;3.65;;
52468;SDS011;38381;53.688;10.776;2023-04-29T23:59:18;8.55;;;4.90;;
